Thursday, October 19, 2017, 2:25 PM EDT
Back to Local

KBGM, Binghamton Regional Airport

Location: Johnson City, NY, United States Lat: 42.2
Local Time: 2:25 PM EDT (18:25 GMT) Lon: -75.983
Time Zone: US/Eastern Elev: 1637 ft

Show me the last for .
Show Decoded

2017-10-19 13:53 METAR KBGM 191753Z 22013G21KT 10SM CLR 19/04 A3008 RMK AO2 SLP183 T01940044
                 10194 20094 58023 =
2017-10-19 12:53 METAR KBGM 191653Z 22010G17KT 10SM CLR 18/06 A3011 RMK AO2 SLP193 T01830056 =
2017-10-19 11:53 METAR KBGM 191553Z 24009G18KT 10SM CLR 17/05 A3014 RMK AO2 SLP206 T01670050 =
2017-10-19 10:53 METAR KBGM 191453Z 23008KT 190V250 10SM CLR 16/06 A3015 RMK AO2 SLP209 T01560056
                 58005 =
2017-10-19 09:53 METAR KBGM 191353Z 21007KT 10SM CLR 13/05 A3016 RMK AO2 SLP215 T01280050 =
2017-10-19 08:53 METAR KBGM 191253Z 21006KT 10SM CLR 11/05 A3016 RMK AO2 SLP216 T01110050 =
2017-10-19 07:53 METAR KBGM 191153Z 19008KT 10SM CLR 09/04 A3017 RMK AO2 SLP217 T00890044 10117
                 20089 56005 =
2017-10-19 06:53 METAR KBGM 191053Z 20007KT 10SM CLR 09/04 A3017 RMK AO2 SLP217 T00940039 =
2017-10-19 05:53 METAR KBGM 190953Z AUTO 19005KT 10SM CLR 10/04 A3018 RMK AO2 SLP218 T01000044 =
2017-10-19 04:53 METAR KBGM 190853Z AUTO 20007KT 10SM CLR 10/04 A3018 RMK AO2 SLP219 T01000044
                 56009 =
2017-10-19 03:53 METAR KBGM 190753Z AUTO 20008KT 10SM CLR 11/05 A3019 RMK AO2 SLP220 T01110050 =
2017-10-19 02:53 METAR KBGM 190653Z AUTO 19006KT 10SM CLR 11/05 A3020 RMK AO2 SLP225 T01060050 =
2017-10-19 01:53 METAR KBGM 190553Z 20006KT 10SM CLR 12/05 A3021 RMK AO2 SLP227 T01170050 10144
                 20111 56009 =
2017-10-19 00:53 METAR KBGM 190453Z 20007KT 10SM CLR 12/05 A3021 RMK AO2 SLP231 T01170050
                 401890061 =
2017-10-18 23:53 METAR KBGM 190353Z 20006KT 10SM CLR 12/06 A3023 RMK AO2 SLP236 T01220056 =
2017-10-18 22:53 METAR KBGM 190253Z 20006KT 10SM CLR 13/06 A3024 RMK AO2 SLP240 T01280056 58004 =
2017-10-18 21:53 METAR KBGM 190153Z 20005KT 10SM CLR 13/06 A3025 RMK AO2 SLP245 T01280061 =
2017-10-18 20:53 METAR KBGM 190053Z 19006KT 10SM CLR 13/06 A3025 RMK AO2 SLP246 T01330061 =
2017-10-18 19:53 METAR KBGM 182353Z 19005KT 10SM CLR 14/07 A3025 RMK AO2 SLP248 T01440067 10189
                 20144 53007 =
2017-10-18 18:53 METAR KBGM 182253Z 19003KT 10SM CLR 16/06 A3025 RMK AO2 SLP245 T01610056 =
2017-10-18 17:53 METAR KBGM 182153Z 22004KT 10SM CLR 17/06 A3023 RMK AO2 SLP238 T01720056 =
2017-10-18 16:53 METAR KBGM 182053Z AUTO 22005KT 10SM CLR 19/06 A3023 RMK AO2 SLP237 T01890056
                 58014 =
2017-10-18 15:53 METAR KBGM 181953Z AUTO VRB06KT 10SM CLR 19/06 A3025 RMK AO2 SLP242 T01890061 =
2017-10-18 14:53 METAR KBGM 181853Z AUTO 24010KT 10SM CLR 19/07 A3026 RMK AO2 SLP246 T01890067 =

Support USWX by starting your Amazon purchase here.